Weather at Mustang Beach Airport

Public forecast

Using degrees Fahrenheit for public forecast. Weather courtesy of forecast.io.

Current aviation weather report (METAR) for Mustang Beach Airport

Retrieved 2021/01/26 23:35 UTC (5 minutes ago):

KRAS 262335Z AUTO 05006KT 1/4SM FG OVC003 A2979 RMK AO2

Closest aviation forecast (TAF) to Mustang Beach Airport

Forecast is more than 12 hours old.

Closest forecast is Corpus Christi Naval Air Station/Truax Field, 12.9 nm (23.9 km) WSW. Retrieved 2021/01/10 16:49 UTC (16 days ago):

TAF KNGP 101540Z 1016/1115 07018G26KT 9999 VCTS BKN001CB OVC020 QNH3000INS TEMPO 1016/1019 4800 TSRA BR BKN003 OVC010CB BECMG 1019/1021 35023G35KT 9999 VCSH SCT008 OVC015 QNH3002INS TEMPO 1021/1100 9000 -SHRA BKN005 BKN005 OVC010 BECMG 1107/1109 35018G26KT 9999 NSW SCT008 OVC015 QNH3032INS BECMG 1113/1115 35015G25KT 9999 BKN015 QNH3037INS AUTOMATED SENSOR METWATCH 1015 TIL 1112 T15/1015Z T04/1112Z FN00235